sensor_id;sensor_type;location;lat;lon;timestamp;temperature;humidity
59703;DHT22;45570;48.782;8.332;2022-10-18T08:56:13;17.50;99.90
59703;DHT22;45570;48.782;8.332;2022-10-18T08:59:12;18.10;99.90
59703;DHT22;45570;48.782;8.332;2022-10-18T09:01:58;18.80;99.90
59703;DHT22;45570;48.782;8.332;2022-10-18T09:04:38;19.60;99.90
59703;DHT22;45570;48.782;8.332;2022-10-18T09:08:06;20.30;99.90
59703;DHT22;45570;48.782;8.332;2022-10-18T09:11:26;20.50;99.90
59703;DHT22;45570;48.782;8.332;2022-10-18T09:14:21;20.70;99.90
59703;DHT22;45570;48.782;8.332;2022-10-18T09:25:58;21.10;99.90
59703;DHT22;45570;48.782;8.332;2022-10-18T09:28:31;21.30;99.90
59703;DHT22;45570;48.782;8.332;2022-10-18T09:31:09;21.50;99.90
59703;DHT22;45570;48.782;8.332;2022-10-18T09:33:48;21.40;99.90
59703;DHT22;45570;48.782;8.332;2022-10-18T09:36:21;21.80;99.90
59703;DHT22;45570;48.782;8.332;2022-10-18T09:38:52;22.20;99.90
59703;DHT22;45570;48.782;8.332;2022-10-18T09:41:33;22.60;99.90
59703;DHT22;45570;48.782;8.332;2022-10-18T09:44:09;22.90;99.90
59703;DHT22;45570;48.782;8.332;2022-10-18T09:46:43;23.20;99.90
59703;DHT22;45570;48.782;8.332;2022-10-18T09:49:17;23.20;99.90
59703;DHT22;45570;48.782;8.332;2022-10-18T09:51:48;23.60;99.90
59703;DHT22;45570;48.782;8.332;2022-10-18T09:54:23;23.90;99.90
59703;DHT22;45570;48.782;8.332;2022-10-18T09:56:59;24.30;99.90
59703;DHT22;45570;48.782;8.332;2022-10-18T09:59:40;24.50;99.90
59703;DHT22;45570;48.782;8.332;2022-10-18T10:02:13;24.50;99.90
59703;DHT22;45570;48.782;8.332;2022-10-18T10:04:43;24.50;99.90
59703;DHT22;45570;48.782;8.332;2022-10-18T10:07:15;24.20;99.90
59703;DHT22;45570;48.782;8.332;2022-10-18T10:09:46;23.80;99.90
59703;DHT22;45570;48.782;8.332;2022-10-18T10:12:29;23.10;99.90
59703;DHT22;45570;48.782;8.332;2022-10-18T10:15:07;22.80;99.90
59703;DHT22;45570;48.782;8.332;2022-10-18T10:17:37;22.50;99.90
59703;DHT22;45570;48.782;8.332;2022-10-18T10:20:16;22.30;99.90
59703;DHT22;45570;48.782;8.332;2022-10-18T10:22:46;22.10;99.90
59703;DHT22;45570;48.782;8.332;2022-10-18T10:25:25;22.00;99.90
59703;DHT22;45570;48.782;8.332;2022-10-18T10:28:02;21.90;99.90
59703;DHT22;45570;48.782;8.332;2022-10-18T10:30:33;21.90;99.90
59703;DHT22;45570;48.782;8.332;2022-10-18T10:33:02;21.80;99.90
59703;DHT22;45570;48.782;8.332;2022-10-18T10:35:33;21.80;99.90
59703;DHT22;45570;48.782;8.332;2022-10-18T10:38:24;21.70;99.90
59703;DHT22;45570;48.782;8.332;2022-10-18T10:40:53;21.60;99.90
59703;DHT22;45570;48.782;8.332;2022-10-18T10:43:25;21.60;99.90
59703;DHT22;45570;48.782;8.332;2022-10-18T10:46:12;21.60;99.90
59703;DHT22;45570;48.782;8.332;2022-10-18T10:48:46;21.70;99.90
59703;DHT22;45570;48.782;8.332;2022-10-18T10:51:18;21.70;99.90
59703;DHT22;45570;48.782;8.332;2022-10-18T10:54:00;21.80;99.90
59703;DHT22;45570;48.782;8.332;2022-10-18T10:56:31;21.80;99.90
59703;DHT22;45570;48.782;8.332;2022-10-18T10:59:08;21.70;99.90
59703;DHT22;45570;48.782;8.332;2022-10-18T11:01:40;21.70;99.90
59703;DHT22;45570;48.782;8.332;2022-10-18T11:04:24;21.80;99.90
59703;DHT22;45570;48.782;8.332;2022-10-18T11:07:05;21.70;99.90
59703;DHT22;45570;48.782;8.332;2022-10-18T11:09:44;21.70;99.90
59703;DHT22;45570;48.782;8.332;2022-10-18T11:12:33;21.60;99.90
59703;DHT22;45570;48.782;8.332;2022-10-18T11:15:24;21.60;99.90
59703;DHT22;45570;48.782;8.332;2022-10-18T11:18:01;21.60;99.90
59703;DHT22;45570;48.782;8.332;2022-10-18T11:20:36;21.70;99.90
59703;DHT22;45570;48.782;8.332;2022-10-18T11:23:10;21.80;99.90
59703;DHT22;45570;48.782;8.332;2022-10-18T11:25:48;21.80;99.90
59703;DHT22;45570;48.782;8.332;2022-10-18T11:28:32;21.90;99.90
59703;DHT22;45570;48.782;8.332;2022-10-18T11:31:13;22.10;99.90
59703;DHT22;45570;48.782;8.332;2022-10-18T11:33:57;22.00;99.90
59703;DHT22;45570;48.782;8.332;2022-10-18T11:36:43;22.20;99.90
59703;DHT22;45570;48.782;8.332;2022-10-18T11:39:36;22.90;99.90
59703;DHT22;45570;48.782;8.332;2022-10-18T11:42:15;23.90;99.90
59703;DHT22;45570;48.782;8.332;2022-10-18T11:44:54;23.70;99.90
59703;DHT22;45570;48.782;8.332;2022-10-18T11:47:28;23.30;99.90
59703;DHT22;45570;48.782;8.332;2022-10-18T11:50:07;23.00;99.90
59703;DHT22;45570;48.782;8.332;2022-10-18T11:52:47;22.80;99.90
59703;DHT22;45570;48.782;8.332;2022-10-18T11:55:29;22.70;99.90
59703;DHT22;45570;48.782;8.332;2022-10-18T11:58:08;22.60;99.90
59703;DHT22;45570;48.782;8.332;2022-10-18T12:00:46;22.60;99.90
59703;DHT22;45570;48.782;8.332;2022-10-18T12:03:33;22.50;99.90
59703;DHT22;45570;48.782;8.332;2022-10-18T12:06:10;23.50;99.90
59703;DHT22;45570;48.782;8.332;2022-10-18T12:08:43;24.10;99.90
59703;DHT22;45570;48.782;8.332;2022-10-18T12:11:15;24.40;99.90
59703;DHT22;45570;48.782;8.332;2022-10-18T12:13:49;24.90;99.90
59703;DHT22;45570;48.782;8.332;2022-10-18T12:16:22;24.80;99.90
59703;DHT22;45570;48.782;8.332;2022-10-18T12:19:18;24.80;99.90
59703;DHT22;45570;48.782;8.332;2022-10-18T12:21:54;24.90;99.90
59703;DHT22;45570;48.782;8.332;2022-10-18T12:24:26;25.00;99.90
59703;DHT22;45570;48.782;8.332;2022-10-18T12:26:58;24.50;99.90
59703;DHT22;45570;48.782;8.332;2022-10-18T12:29:32;24.50;99.90
59703;DHT22;45570;48.782;8.332;2022-10-18T12:32:08;25.10;99.90
59703;DHT22;45570;48.782;8.332;2022-10-18T12:34:42;25.20;99.90
59703;DHT22;45570;48.782;8.332;2022-10-18T12:37:39;24.90;99.90
59703;DHT22;45570;48.782;8.332;2022-10-18T12:40:16;24.50;99.90
59703;DHT22;45570;48.782;8.332;2022-10-18T12:42:49;24.00;99.90
59703;DHT22;45570;48.782;8.332;2022-10-18T12:45:29;24.10;99.90
59703;DHT22;45570;48.782;8.332;2022-10-18T12:48:02;23.80;99.90
59703;DHT22;45570;48.782;8.332;2022-10-18T12:50:36;23.50;99.90
59703;DHT22;45570;48.782;8.332;2022-10-18T12:53:17;23.30;99.90
59703;DHT22;45570;48.782;8.332;2022-10-18T12:55:49;23.50;99.90
59703;DHT22;45570;48.782;8.332;2022-10-18T12:58:29;23.60;99.90
59703;DHT22;45570;48.782;8.332;2022-10-18T13:01:04;23.50;99.90
59703;DHT22;45570;48.782;8.332;2022-10-18T13:03:50;23.30;99.90
59703;DHT22;45570;48.782;8.332;2022-10-18T13:06:22;23.00;99.90
59703;DHT22;45570;48.782;8.332;2022-10-18T13:09:18;22.90;99.90
59703;DHT22;45570;48.782;8.332;2022-10-18T13:11:47;22.80;99.90
59703;DHT22;45570;48.782;8.332;2022-10-18T13:14:44;22.80;99.90
59703;DHT22;45570;48.782;8.332;2022-10-18T13:17:42;22.70;99.90
59703;DHT22;45570;48.782;8.332;2022-10-18T13:20:19;22.70;99.90
59703;DHT22;45570;48.782;8.332;2022-10-18T13:23:03;22.50;99.90
59703;DHT22;45570;48.782;8.332;2022-10-18T13:25:45;22.50;99.90
59703;DHT22;45570;48.782;8.332;2022-10-18T13:28:25;22.40;99.90
59703;DHT22;45570;48.782;8.332;2022-10-18T13:30:59;22.40;99.90
59703;DHT22;45570;48.782;8.332;2022-10-18T13:33:32;22.30;99.90
59703;DHT22;45570;48.782;8.332;2022-10-18T13:36:03;22.30;99.90
59703;DHT22;45570;48.782;8.332;2022-10-18T13:38:44;22.20;99.90
59703;DHT22;45570;48.782;8.332;2022-10-18T13:41:18;22.20;99.90
59703;DHT22;45570;48.782;8.332;2022-10-18T13:44:05;22.10;99.90
59703;DHT22;45570;48.782;8.332;2022-10-18T13:58:59;21.90;99.90
59703;DHT22;45570;48.782;8.332;2022-10-18T14:01:50;21.80;99.90
59703;DHT22;45570;48.782;8.332;2022-10-18T14:04:38;21.80;99.90
59703;DHT22;45570;48.782;8.332;2022-10-18T14:07:10;21.80;99.90
59703;DHT22;45570;48.782;8.332;2022-10-18T14:09:46;21.90;99.90
59703;DHT22;45570;48.782;8.332;2022-10-18T14:12:27;21.90;99.90
59703;DHT22;45570;48.782;8.332;2022-10-18T14:15:02;21.90;99.90
59703;DHT22;45570;48.782;8.332;2022-10-18T14:17:37;21.90;99.90
59703;DHT22;45570;48.782;8.332;2022-10-18T14:20:21;21.90;99.90
59703;DHT22;45570;48.782;8.332;2022-10-18T14:23:01;21.90;99.90
59703;DHT22;45570;48.782;8.332;2022-10-18T14:25:34;22.00;99.90
59703;DHT22;45570;48.782;8.332;2022-10-18T14:28:09;21.90;99.90
59703;DHT22;45570;48.782;8.332;2022-10-18T14:30:51;21.90;99.90
59703;DHT22;45570;48.782;8.332;2022-10-18T14:33:25;21.90;99.90
59703;DHT22;45570;48.782;8.332;2022-10-18T14:36:00;21.90;99.90
59703;DHT22;45570;48.782;8.332;2022-10-18T14:38:29;21.90;99.90
59703;DHT22;45570;48.782;8.332;2022-10-18T14:41:10;21.90;99.90
59703;DHT22;45570;48.782;8.332;2022-10-18T14:43:43;21.90;99.90
59703;DHT22;45570;48.782;8.332;2022-10-18T14:46:19;21.80;99.90
59703;DHT22;45570;48.782;8.332;2022-10-18T14:48:54;21.80;99.90
59703;DHT22;45570;48.782;8.332;2022-10-18T14:51:26;21.70;99.90
59703;DHT22;45570;48.782;8.332;2022-10-18T14:53:56;21.50;99.90
59703;DHT22;45570;48.782;8.332;2022-10-18T14:56:26;21.50;99.90
59703;DHT22;45570;48.782;8.332;2022-10-18T14:59:00;21.50;99.90
59703;DHT22;45570;48.782;8.332;2022-10-18T15:01:31;21.40;99.90
59703;DHT22;45570;48.782;8.332;2022-10-18T15:04:05;21.40;99.90
59703;DHT22;45570;48.782;8.332;2022-10-18T15:06:35;21.30;99.90
59703;DHT22;45570;48.782;8.332;2022-10-18T15:09:04;21.30;99.90
59703;DHT22;45570;48.782;8.332;2022-10-18T15:11:33;21.30;99.90
59703;DHT22;45570;48.782;8.332;2022-10-18T15:14:13;21.20;99.90
59703;DHT22;45570;48.782;8.332;2022-10-18T15:16:44;21.20;99.90
59703;DHT22;45570;48.782;8.332;2022-10-18T15:19:31;21.00;99.90
59703;DHT22;45570;48.782;8.332;2022-10-18T15:22:01;20.90;99.90
59703;DHT22;45570;48.782;8.332;2022-10-18T15:25:09;20.90;99.90
59703;DHT22;45570;48.782;8.332;2022-10-18T15:27:39;20.80;99.90
59703;DHT22;45570;48.782;8.332;2022-10-18T15:30:18;20.70;99.90
59703;DHT22;45570;48.782;8.332;2022-10-18T15:32:50;20.50;99.90
59703;DHT22;45570;48.782;8.332;2022-10-18T15:35:23;20.50;99.90
59703;DHT22;45570;48.782;8.332;2022-10-18T15:37:54;20.40;99.90
59703;DHT22;45570;48.782;8.332;2022-10-18T15:40:40;20.30;99.90
59703;DHT22;45570;48.782;8.332;2022-10-18T15:43:34;20.20;99.90
59703;DHT22;45570;48.782;8.332;2022-10-18T15:46:05;20.20;99.90
59703;DHT22;45570;48.782;8.332;2022-10-18T15:48:36;20.20;99.90
59703;DHT22;45570;48.782;8.332;2022-10-18T15:51:06;20.00;99.90
59703;DHT22;45570;48.782;8.332;2022-10-18T15:53:50;20.10;99.90
59703;DHT22;45570;48.782;8.332;2022-10-18T15:56:31;20.00;99.90
59703;DHT22;45570;48.782;8.332;2022-10-18T15:59:01;19.90;99.90
59703;DHT22;45570;48.782;8.332;2022-10-18T16:01:35;19.90;99.90
59703;DHT22;45570;48.782;8.332;2022-10-18T16:04:08;19.90;99.90
59703;DHT22;45570;48.782;8.332;2022-10-18T16:06:38;19.80;99.90
59703;DHT22;45570;48.782;8.332;2022-10-18T16:09:10;19.80;99.90
59703;DHT22;45570;48.782;8.332;2022-10-18T16:11:42;19.60;99.90
